< < Back
Terminal Aerodrome Forecast


Current Version              Previous Versions:   1  2  3  4  5  6  7  8  9  

Terminal Aerodrome Forecast

210
FTUS44 KOHX 031600 AAA
TAFBNA
TAF AMD
KBNA 031624Z 0316/0412 20011G17KT P6SM OVC007
     FM031900 20012G19KT 5SM -SHRA OVC007
     FM041000 26009KT 4SM -RA OVC006=



Latest METAR

672
SAUS70 KWBC 032200 RRV
MTRBNA
METAR KBNA 032153Z 19012KT 10SM BKN017 OVC043 18/14 A2994 RMK AO2 SLP138
T01780144


USA.gov is the U.S. government's official web portal to all federal, state and local government web resources and services.